createdAt,value
2022-11-25T00:01:09.093Z,87.20
2022-11-25T00:03:59.192Z,87.20
2022-11-25T00:06:44.524Z,87.20
2022-11-25T00:09:32.483Z,86.90
2022-11-25T00:12:17.836Z,86.60
2022-11-25T00:15:03.246Z,86.70
2022-11-25T00:17:51.219Z,87.10
2022-11-25T00:20:38.406Z,86.20
2022-11-25T00:23:25.311Z,86.30
2022-11-25T00:26:16.178Z,86.10
2022-11-25T00:29:06.533Z,85.80
2022-11-25T00:31:54.375Z,85.80
2022-11-25T00:34:40.101Z,86.50
2022-11-25T00:37:25.657Z,85.70
2022-11-25T00:40:11.934Z,85.80
2022-11-25T00:43:18.236Z,85.90
2022-11-25T00:46:03.776Z,85.90
2022-11-25T00:48:49.704Z,85.60
2022-11-25T00:51:37.754Z,85.60
2022-11-25T00:54:23.426Z,85.60
2022-11-25T00:57:09.095Z,85.50
2022-11-25T00:59:56.774Z,85.70
2022-11-25T01:02:42.137Z,85.80
2022-11-25T01:05:27.579Z,85.90
2022-11-25T01:08:12.971Z,85.80
2022-11-25T01:11:03.872Z,85.60
2022-11-25T01:13:49.870Z,85.50
2022-11-25T01:16:35.418Z,85.50
2022-11-25T01:19:23.933Z,85.20
2022-11-25T01:22:10.300Z,85.20
2022-11-25T01:24:55.728Z,85.10
2022-11-25T01:27:43.504Z,85.00
2022-11-25T01:30:29.256Z,85.10
2022-11-25T01:33:14.903Z,85.00
2022-11-25T01:36:09.052Z,85.20
2022-11-25T01:38:59.264Z,85.50
2022-11-25T01:41:44.601Z,85.30
2022-11-25T01:44:32.410Z,85.50
2022-11-25T01:47:24.440Z,85.20
2022-11-25T01:50:12.545Z,85.10
2022-11-25T01:53:00.709Z,85.10
2022-11-25T01:55:52.061Z,85.30
2022-11-25T01:58:38.760Z,85.40
2022-11-25T02:01:24.219Z,85.20
2022-11-25T02:04:15.146Z,86.00
2022-11-25T02:07:18.764Z,84.90
2022-11-25T02:10:11.540Z,85.20
2022-11-25T02:12:58.430Z,85.00
2022-11-25T02:15:46.164Z,85.10
2022-11-25T02:18:36.235Z,85.20
2022-11-25T02:21:30.221Z,85.00
2022-11-25T02:24:32.345Z,85.00
2022-11-25T02:27:18.082Z,85.20
2022-11-25T02:30:06.415Z,85.50
2022-11-25T02:32:57.072Z,85.60
2022-11-25T02:36:04.841Z,85.60
2022-11-25T02:38:57.487Z,85.50
2022-11-25T02:41:47.598Z,85.90
2022-11-25T02:44:33.763Z,86.10
2022-11-25T02:47:19.473Z,86.20
2022-11-25T02:50:06.042Z,86.30
2022-11-25T02:52:54.446Z,86.20
2022-11-25T02:55:39.868Z,86.10
2022-11-25T02:58:28.239Z,86.20
2022-11-25T03:01:14.435Z,86.20
2022-11-25T03:04:02.684Z,86.30
2022-11-25T03:06:47.961Z,86.30
2022-11-25T03:09:33.078Z,86.10
2022-11-25T03:12:21.277Z,86.10
2022-11-25T03:15:09.824Z,85.90
2022-11-25T03:17:57.375Z,85.70
2022-11-25T03:20:44.655Z,85.80
2022-11-25T03:23:32.243Z,85.60
2022-11-25T03:26:17.608Z,85.60
2022-11-25T03:29:07.926Z,85.40
2022-11-25T03:31:55.553Z,85.30
2022-11-25T03:34:43.556Z,85.90
2022-11-25T03:37:28.820Z,85.00
2022-11-25T03:40:17.181Z,84.90
2022-11-25T03:43:07.197Z,84.80
2022-11-25T03:45:52.872Z,85.40
2022-11-25T03:48:40.813Z,84.60
2022-11-25T03:51:28.653Z,84.60
2022-11-25T03:54:14.040Z,84.60
2022-11-25T03:56:59.413Z,84.50
2022-11-25T03:59:47.536Z,84.50
2022-11-25T04:02:36.702Z,84.50
2022-11-25T04:05:24.410Z,84.60
2022-11-25T04:08:11.795Z,84.50
2022-11-25T04:10:57.130Z,84.60
2022-11-25T04:13:44.942Z,84.50
2022-11-25T04:16:33.317Z,84.50
2022-11-25T04:19:19.169Z,84.50
2022-11-25T04:22:04.411Z,84.50
2022-11-25T04:24:50.140Z,84.50
2022-11-25T04:27:39.950Z,84.40
2022-11-25T04:30:25.610Z,84.50
2022-11-25T04:33:11.437Z,84.60
2022-11-25T04:35:56.885Z,84.50
2022-11-25T04:38:42.281Z,84.50
2022-11-25T04:41:27.865Z,84.50
2022-11-25T04:44:13.678Z,84.20
2022-11-25T04:46:58.895Z,84.20
2022-11-25T04:49:48.989Z,84.20
2022-11-25T04:52:34.226Z,84.30
2022-11-25T04:55:19.758Z,84.20
2022-11-25T04:58:05.289Z,84.00
2022-11-25T05:00:52.822Z,84.00
2022-11-25T05:03:38.118Z,83.90
2022-11-25T05:06:23.778Z,84.00
2022-11-25T05:09:11.184Z,84.00
2022-11-25T05:11:57.073Z,83.90
2022-11-25T05:14:43.463Z,84.20
2022-11-25T05:17:30.972Z,84.20
2022-11-25T05:20:19.051Z,84.20
2022-11-25T05:23:04.259Z,84.00
2022-11-25T05:25:52.321Z,84.10
2022-11-25T05:28:37.783Z,84.10
2022-11-25T05:31:28.727Z,84.30
2022-11-25T05:34:15.415Z,84.20
2022-11-25T05:37:03.493Z,84.20
2022-11-25T05:39:48.964Z,84.20
2022-11-25T05:42:34.522Z,84.20
2022-11-25T05:45:20.069Z,84.20
2022-11-25T05:48:05.963Z,84.20
2022-11-25T05:50:51.360Z,84.10
2022-11-25T05:53:36.971Z,84.10
2022-11-25T05:56:22.205Z,84.10
2022-11-25T05:59:07.961Z,84.20
2022-11-25T06:01:54.740Z,84.30
2022-11-25T06:04:40.286Z,84.20
2022-11-25T06:07:28.247Z,84.50
2022-11-25T06:10:16.524Z,84.50
2022-11-25T06:13:02.529Z,84.50
2022-11-25T06:15:50.391Z,84.60
2022-11-25T06:18:37.537Z,85.20
2022-11-25T06:21:22.968Z,85.10
2022-11-25T06:24:10.576Z,85.20
2022-11-25T06:26:56.453Z,85.30
2022-11-25T06:29:41.631Z,85.50
2022-11-25T06:32:27.095Z,86.40
2022-11-25T06:35:12.729Z,87.60
2022-11-25T06:38:03.919Z,88.40
2022-11-25T06:40:53.964Z,89.00
2022-11-25T06:43:39.922Z,89.90
2022-11-25T06:46:25.647Z,90.50
2022-11-25T06:49:11.357Z,90.70
2022-11-25T06:51:56.824Z,91.00
2022-11-25T06:54:45.505Z,91.40
2022-11-25T06:57:33.255Z,91.90
2022-11-25T07:00:19.242Z,92.10
2022-11-25T07:03:07.091Z,92.30
2022-11-25T07:05:57.034Z,92.60
2022-11-25T07:08:43.266Z,92.90
2022-11-25T07:11:31.958Z,93.10
2022-11-25T07:14:17.729Z,93.20
2022-11-25T07:17:06.207Z,93.20
2022-11-25T07:19:56.085Z,93.00
2022-11-25T07:22:41.677Z,92.90
2022-11-25T07:25:30.871Z,92.70
2022-11-25T07:28:21.146Z,92.80
2022-11-25T07:31:24.429Z,92.60
2022-11-25T07:34:18.531Z,92.50
2022-11-25T07:37:03.898Z,92.00
2022-11-25T07:39:51.434Z,91.90
2022-11-25T07:42:38.880Z,91.80
2022-11-25T07:45:24.956Z,91.40
2022-11-25T07:48:12.338Z,91.10
2022-11-25T07:50:57.512Z,90.90
2022-11-25T07:53:43.926Z,90.70
2022-11-25T07:56:30.246Z,90.20
2022-11-25T07:59:20.437Z,90.10
2022-11-25T08:02:06.194Z,89.90
2022-11-25T08:04:51.674Z,89.40
2022-11-25T08:07:39.945Z,89.00
2022-11-25T08:10:27.511Z,88.20
2022-11-25T08:13:12.909Z,88.10
2022-11-25T08:16:00.535Z,87.60
2022-11-25T08:18:46.606Z,87.80
2022-11-25T08:21:32.289Z,87.50
2022-11-25T08:24:21.091Z,87.30
2022-11-25T08:27:08.616Z,87.30
2022-11-25T08:29:54.166Z,87.40
2022-11-25T08:32:39.525Z,87.20
2022-11-25T08:35:24.781Z,87.80
2022-11-25T08:38:14.320Z,87.30
2022-11-25T08:40:59.891Z,87.80
2022-11-25T08:43:45.879Z,87.50
2022-11-25T08:46:34.633Z,86.30
2022-11-25T08:49:22.291Z,85.60
2022-11-25T08:52:07.673Z,85.70
2022-11-25T08:54:52.964Z,85.50
2022-11-25T08:57:38.435Z,85.50
2022-11-25T09:00:24.246Z,85.50
2022-11-25T09:03:09.845Z,85.60
2022-11-25T09:05:55.452Z,85.60
2022-11-25T09:08:43.321Z,85.10
2022-11-25T09:11:29.227Z,83.90
2022-11-25T09:14:15.117Z,84.10
2022-11-25T09:17:03.836Z,83.80
2022-11-25T09:19:49.013Z,83.10
2022-11-25T09:22:37.106Z,82.60
2022-11-25T09:25:23.023Z,82.30
2022-11-25T09:28:09.585Z,81.20
2022-11-25T09:30:55.147Z,80.80
2022-11-25T09:33:41.430Z,80.90
2022-11-25T09:36:29.289Z,80.20
2022-11-25T09:39:14.750Z,80.20
2022-11-25T09:42:47.847Z,80.00
2022-11-25T09:46:20.679Z,79.60
2022-11-25T09:49:45.338Z,78.80
2022-11-25T09:52:56.966Z,78.10
2022-11-25T09:55:49.035Z,76.80
2022-11-25T09:59:06.027Z,76.70
2022-11-25T10:02:02.057Z,76.20
2022-11-25T10:05:13.987Z,75.80
2022-11-25T10:08:25.275Z,75.10
2022-11-25T10:11:29.330Z,75.40
2022-11-25T10:14:25.653Z,74.60
2022-11-25T10:17:20.828Z,73.90
2022-11-25T10:20:21.071Z,72.80
2022-11-25T10:23:17.578Z,73.60
2022-11-25T10:26:22.307Z,73.20
2022-11-25T10:29:13.907Z,72.10
2022-11-25T10:32:21.612Z,72.30
2022-11-25T10:35:33.229Z,73.00
2022-11-25T10:38:37.338Z,73.50
2022-11-25T10:41:29.130Z,73.30
2022-11-25T10:44:30.148Z,73.00
2022-11-25T10:47:44.169Z,72.00
2022-11-25T10:50:56.519Z,71.80
2022-11-25T10:53:42.013Z,72.10
2022-11-25T10:56:27.784Z,71.80
2022-11-25T10:59:15.509Z,72.60
2022-11-25T11:02:35.458Z,72.40
2022-11-25T11:05:28.834Z,71.70
2022-11-25T11:08:36.992Z,71.80
2022-11-25T11:11:23.872Z,72.70
2022-11-25T11:14:13.910Z,71.30
2022-11-25T11:16:59.428Z,70.90
2022-11-25T11:20:03.528Z,71.00
2022-11-25T11:23:12.227Z,70.00
2022-11-25T11:26:06.749Z,69.90
2022-11-25T11:29:07.372Z,69.30
2022-11-25T11:32:05.414Z,69.40
2022-11-25T11:35:06.391Z,69.20
2022-11-25T11:38:17.636Z,68.80
2022-11-25T11:41:31.484Z,68.50
2022-11-25T11:44:45.206Z,69.70
2022-11-25T11:47:41.049Z,70.40
2022-11-25T11:50:29.110Z,70.40
2022-11-25T11:53:39.826Z,69.60
2022-11-25T11:56:42.683Z,69.60
2022-11-25T11:59:48.914Z,70.40
2022-11-25T12:02:52.918Z,70.00
2022-11-25T12:05:39.792Z,69.20
2022-11-25T12:08:34.103Z,69.80
2022-11-25T12:11:27.175Z,69.50
2022-11-25T12:14:37.404Z,68.20
2022-11-25T12:17:44.119Z,68.60
2022-11-25T12:20:47.314Z,69.50
2022-11-25T12:23:49.053Z,70.40
2022-11-25T12:27:09.912Z,71.70
2022-11-25T12:30:16.913Z,71.80
2022-11-25T12:33:21.750Z,72.40
2022-11-25T12:36:18.818Z,73.20
2022-11-25T12:39:22.348Z,73.60
2022-11-25T12:42:22.643Z,74.30
2022-11-25T12:45:17.620Z,74.40
2022-11-25T12:48:04.213Z,74.60
2022-11-25T12:51:04.979Z,74.90
2022-11-25T12:54:17.873Z,75.30
2022-11-25T12:57:42.015Z,76.00
2022-11-25T13:00:42.232Z,76.30
2022-11-25T13:03:43.557Z,76.30
2022-11-25T13:07:02.151Z,76.40
2022-11-25T13:10:05.946Z,76.30
2022-11-25T13:13:19.780Z,76.10
2022-11-25T13:16:09.859Z,75.80
2022-11-25T13:18:58.550Z,75.60
2022-11-25T13:22:24.758Z,75.70
2022-11-25T13:25:26.099Z,75.70
2022-11-25T13:28:30.303Z,75.80
2022-11-25T13:31:34.002Z,75.70
2022-11-25T13:34:19.363Z,75.70
2022-11-25T13:37:36.355Z,76.30
2022-11-25T13:40:30.108Z,76.30
2022-11-25T13:43:23.519Z,76.30
2022-11-25T13:46:08.948Z,76.40
2022-11-25T13:48:55.172Z,76.60
2022-11-25T13:51:51.750Z,76.50
2022-11-25T13:54:48.371Z,76.80
2022-11-25T13:57:35.806Z,76.70
2022-11-25T14:00:21.394Z,77.40
2022-11-25T14:03:21.313Z,77.60
2022-11-25T14:06:23.159Z,77.90
2022-11-25T14:09:48.846Z,78.20
2022-11-25T14:12:50.093Z,78.30
2022-11-25T14:15:51.929Z,78.70
2022-11-25T14:22:03.995Z,78.80
2022-11-25T14:24:53.129Z,78.80
2022-11-25T14:27:44.862Z,78.90
2022-11-25T14:30:31.389Z,79.10
2022-11-25T14:33:23.951Z,79.10
2022-11-25T14:36:14.255Z,79.50
2022-11-25T14:39:07.748Z,79.40
2022-11-25T14:42:05.802Z,79.60
2022-11-25T14:44:53.203Z,79.80
2022-11-25T14:47:42.860Z,80.10
2022-11-25T14:50:35.636Z,80.20
2022-11-25T14:53:21.434Z,80.30
2022-11-25T14:56:09.843Z,81.00
2022-11-25T14:58:57.383Z,81.00
2022-11-25T15:01:54.869Z,81.30
2022-11-25T15:04:41.773Z,81.70
2022-11-25T15:07:31.493Z,82.00
2022-11-25T15:10:36.932Z,82.10
2022-11-25T15:13:32.061Z,82.30
2022-11-25T15:16:24.162Z,82.60
2022-11-25T15:19:18.684Z,82.60
2022-11-25T15:22:22.313Z,82.60
2022-11-25T15:25:14.231Z,82.60
2022-11-25T15:27:59.862Z,82.70
2022-11-25T15:31:00.049Z,82.90
2022-11-25T15:33:46.746Z,83.00
2022-11-25T15:36:32.370Z,83.10
2022-11-25T15:39:20.413Z,83.30
2022-11-25T15:42:20.269Z,83.30
2022-11-25T15:45:20.569Z,83.60
2022-11-25T15:48:06.411Z,83.60
2022-11-25T15:50:52.232Z,83.70
2022-11-25T15:53:39.326Z,83.60
2022-11-25T15:56:27.298Z,83.70
2022-11-25T15:59:40.821Z,84.00
2022-11-25T16:02:44.577Z,84.20
2022-11-25T16:05:37.838Z,84.20
2022-11-25T16:09:15.769Z,84.20
2022-11-25T16:12:07.746Z,84.40
2022-11-25T16:14:53.014Z,84.70
2022-11-25T16:17:43.822Z,84.80
2022-11-25T16:20:31.453Z,84.70
2022-11-25T16:23:18.050Z,85.10
2022-11-25T16:26:03.789Z,85.10
2022-11-25T16:28:58.523Z,85.20
2022-11-25T16:31:43.944Z,85.40
2022-11-25T16:34:30.762Z,85.20
2022-11-25T16:37:16.297Z,85.30
2022-11-25T16:40:04.354Z,85.30
2022-11-25T16:42:50.749Z,85.10
2022-11-25T16:45:36.677Z,85.10
2022-11-25T16:48:26.460Z,85.20
2022-11-25T16:51:17.930Z,85.00
2022-11-25T16:54:04.833Z,85.00
2022-11-25T16:56:58.043Z,84.80
2022-11-25T16:59:47.815Z,84.80
2022-11-25T17:02:33.649Z,85.00
2022-11-25T17:05:24.719Z,84.90
2022-11-25T17:08:10.555Z,85.00
2022-11-25T17:10:59.720Z,85.00
2022-11-25T17:13:50.379Z,85.00
2022-11-25T17:16:36.141Z,84.90
2022-11-25T17:19:21.883Z,84.90
2022-11-25T17:22:20.142Z,84.70
2022-11-25T17:25:05.654Z,84.70
2022-11-25T17:27:56.726Z,84.60
2022-11-25T17:30:45.463Z,84.40
2022-11-25T17:33:30.738Z,84.60
2022-11-25T17:36:18.915Z,84.30
2022-11-25T17:39:08.451Z,84.50
2022-11-25T17:41:53.740Z,84.40
2022-11-25T17:44:40.165Z,84.50
2022-11-25T17:47:26.321Z,84.30
2022-11-25T17:50:21.704Z,84.60
2022-11-25T17:53:11.079Z,84.70
2022-11-25T17:55:58.924Z,84.60
2022-11-25T17:58:49.131Z,84.50
2022-11-25T18:01:37.454Z,84.40
2022-11-25T18:04:25.099Z,84.20
2022-11-25T18:07:13.432Z,84.10
2022-11-25T18:09:59.140Z,84.00
2022-11-25T18:12:52.147Z,83.80
2022-11-25T18:15:38.573Z,83.90
2022-11-25T18:18:26.032Z,83.80
2022-11-25T18:21:12.052Z,83.70
2022-11-25T18:23:58.867Z,83.70
2022-11-25T18:26:53.037Z,83.70
2022-11-25T18:29:38.809Z,83.80
2022-11-25T18:32:27.362Z,84.00
2022-11-25T18:35:21.829Z,84.00
2022-11-25T18:38:07.752Z,84.10
2022-11-25T18:40:58.762Z,84.10
2022-11-25T18:43:44.332Z,84.10
2022-11-25T18:46:35.790Z,84.30
2022-11-25T18:49:21.752Z,84.30
2022-11-25T18:52:09.309Z,84.60
2022-11-25T18:54:57.175Z,84.60
2022-11-25T18:57:48.013Z,84.90
2022-11-25T19:00:33.924Z,85.10
2022-11-25T19:03:23.277Z,85.20
2022-11-25T19:06:15.626Z,85.20
2022-11-25T19:09:01.119Z,85.30
2022-11-25T19:11:52.991Z,85.50
2022-11-25T19:14:42.415Z,85.60
2022-11-25T19:17:29.577Z,85.70
2022-11-25T19:20:16.134Z,85.90
2022-11-25T19:23:16.508Z,85.90
2022-11-25T19:26:09.700Z,86.30
2022-11-25T19:29:02.589Z,86.30
2022-11-25T19:31:54.207Z,86.20
2022-11-25T19:34:43.964Z,86.30
2022-11-25T19:37:33.829Z,86.30
2022-11-25T19:40:23.413Z,86.40
2022-11-25T19:43:09.167Z,86.40
2022-11-25T19:45:56.960Z,86.70
2022-11-25T19:48:42.426Z,86.50
2022-11-25T19:51:33.581Z,86.50
2022-11-25T19:54:24.137Z,86.60
2022-11-25T19:57:22.578Z,86.80
2022-11-25T20:00:09.283Z,86.90
2022-11-25T20:02:56.163Z,87.10
2022-11-25T20:05:44.301Z,87.10
2022-11-25T20:08:29.749Z,87.20
2022-11-25T20:11:17.337Z,87.00
2022-11-25T20:14:03.985Z,87.00
2022-11-25T20:16:51.484Z,87.10
2022-11-25T20:19:37.500Z,87.10
2022-11-25T20:22:31.484Z,86.90
2022-11-25T20:25:17.063Z,87.00
2022-11-25T20:28:02.458Z,87.10
2022-11-25T20:30:52.225Z,87.00
2022-11-25T20:33:37.540Z,87.00
2022-11-25T20:36:29.173Z,87.20
2022-11-25T20:39:19.860Z,87.10
2022-11-25T20:42:11.271Z,87.00
2022-11-25T20:44:57.974Z,86.70
2022-11-25T20:47:44.460Z,87.40
2022-11-25T20:50:30.820Z,86.90
2022-11-25T20:53:22.718Z,87.10
2022-11-25T20:56:13.728Z,87.10
2022-11-25T20:59:02.057Z,86.70
2022-11-25T21:01:48.080Z,87.60
2022-11-25T21:04:34.523Z,87.60
2022-11-25T21:07:24.521Z,87.70
2022-11-25T21:10:29.765Z,87.90
2022-11-25T21:13:27.689Z,87.80
2022-11-25T21:16:13.800Z,88.60
2022-11-25T21:18:59.115Z,88.90
2022-11-25T21:21:47.818Z,89.20
2022-11-25T21:24:39.024Z,88.60
2022-11-25T21:27:28.492Z,88.80
2022-11-25T21:30:23.472Z,88.80
2022-11-25T21:33:09.978Z,89.10
2022-11-25T21:35:56.242Z,89.40
2022-11-25T21:38:44.008Z,89.70
2022-11-25T21:41:29.749Z,89.70
2022-11-25T21:44:30.712Z,90.00
2022-11-25T21:47:18.589Z,90.00
2022-11-25T21:50:16.283Z,89.90
2022-11-25T21:53:02.598Z,89.90
2022-11-25T21:55:49.311Z,89.90
2022-11-25T21:58:34.602Z,90.30
2022-11-25T22:01:23.145Z,90.00
2022-11-25T22:04:17.155Z,90.00
2022-11-25T22:07:05.106Z,90.00
2022-11-25T22:09:50.338Z,90.00
2022-11-25T22:12:41.038Z,90.00
2022-11-25T22:15:27.494Z,90.40
2022-11-25T22:18:32.944Z,90.10
2022-11-25T22:21:20.505Z,89.90
2022-11-25T22:24:14.787Z,90.00
2022-11-25T22:27:00.358Z,90.10
2022-11-25T22:29:46.525Z,90.10
2022-11-25T22:32:32.171Z,90.10
2022-11-25T22:35:20.202Z,90.10
2022-11-25T22:38:13.349Z,90.20
2022-11-25T22:41:02.721Z,90.20
2022-11-25T22:43:52.030Z,90.20
2022-11-25T22:46:38.419Z,90.40
2022-11-25T22:49:40.504Z,90.60
2022-11-25T22:52:31.762Z,90.70
2022-11-25T22:55:23.634Z,90.70
2022-11-25T22:58:11.583Z,90.80
2022-11-25T23:00:57.334Z,90.80
2022-11-25T23:03:45.008Z,90.80
2022-11-25T23:06:33.444Z,91.20
2022-11-25T23:09:19.982Z,91.60
2022-11-25T23:12:05.376Z,92.10
2022-11-25T23:14:51.183Z,92.20
2022-11-25T23:17:39.270Z,92.30
2022-11-25T23:20:35.606Z,93.00
2022-11-25T23:23:25.238Z,93.40
2022-11-25T23:26:11.698Z,94.20
2022-11-25T23:28:56.963Z,95.00
2022-11-25T23:31:43.042Z,95.20
2022-11-25T23:34:32.161Z,95.20
2022-11-25T23:37:17.977Z,95.20
2022-11-25T23:40:04.020Z,95.20
2022-11-25T23:42:50.117Z,95.30
2022-11-25T23:45:35.755Z,95.70
2022-11-25T23:48:29.364Z,96.00
2022-11-25T23:51:14.912Z,95.90
2022-11-25T23:54:00.970Z,95.60
2022-11-25T23:56:47.046Z,95.40
2022-11-25T23:59:32.265Z,95.10
